sensor_id;sensor_type;location;lat;lon;timestamp;P1;durP1;ratioP1;P2;durP2;ratioP2
579;SDS011;276;48.392;9.950;2023-03-23T00:01:08;3.40;;;3.20;;
579;SDS011;276;48.392;9.950;2023-03-23T00:03:39;4.47;;;3.20;;
579;SDS011;276;48.392;9.950;2023-03-23T00:06:06;4.93;;;3.70;;
579;SDS011;276;48.392;9.950;2023-03-23T00:08:41;4.23;;;3.83;;
579;SDS011;276;48.392;9.950;2023-03-23T00:11:15;3.57;;;3.13;;
579;SDS011;276;48.392;9.950;2023-03-23T00:13:47;4.27;;;3.80;;
579;SDS011;276;48.392;9.950;2023-03-23T00:16:22;5.03;;;3.67;;
579;SDS011;276;48.392;9.950;2023-03-23T00:19:00;3.87;;;3.47;;
579;SDS011;276;48.392;9.950;2023-03-23T00:21:30;8.60;;;3.37;;
579;SDS011;276;48.392;9.950;2023-03-23T00:24:11;4.20;;;3.63;;
579;SDS011;276;48.392;9.950;2023-03-23T00:26:47;4.27;;;3.87;;
579;SDS011;276;48.392;9.950;2023-03-23T00:29:15;4.07;;;3.77;;
579;SDS011;276;48.392;9.950;2023-03-23T00:31:46;3.30;;;3.00;;
579;SDS011;276;48.392;9.950;2023-03-23T00:34:17;4.40;;;3.23;;
579;SDS011;276;48.392;9.950;2023-03-23T00:36:48;10.37;;;5.60;;
579;SDS011;276;48.392;9.950;2023-03-23T00:39:16;7.33;;;3.37;;
579;SDS011;276;48.392;9.950;2023-03-23T00:41:43;3.73;;;3.40;;
579;SDS011;276;48.392;9.950;2023-03-23T00:44:09;3.43;;;3.13;;
579;SDS011;276;48.392;9.950;2023-03-23T00:46:35;4.53;;;3.40;;
579;SDS011;276;48.392;9.950;2023-03-23T00:49:09;3.50;;;3.20;;
579;SDS011;276;48.392;9.950;2023-03-23T00:51:41;4.90;;;3.50;;
579;SDS011;276;48.392;9.950;2023-03-23T00:54:07;5.80;;;3.40;;
579;SDS011;276;48.392;9.950;2023-03-23T00:56:35;6.00;;;3.00;;
579;SDS011;276;48.392;9.950;2023-03-23T00:59:02;4.60;;;2.70;;
579;SDS011;276;48.392;9.950;2023-03-23T01:01:28;3.47;;;2.87;;
579;SDS011;276;48.392;9.950;2023-03-23T01:03:55;4.43;;;3.00;;
579;SDS011;276;48.392;9.950;2023-03-23T01:06:25;4.13;;;3.53;;
579;SDS011;276;48.392;9.950;2023-03-23T01:08:56;4.27;;;3.87;;
579;SDS011;276;48.392;9.950;2023-03-23T01:11:22;4.30;;;3.30;;
579;SDS011;276;48.392;9.950;2023-03-23T01:13:52;6.73;;;3.50;;
579;SDS011;276;48.392;9.950;2023-03-23T01:16:17;4.13;;;3.50;;
579;SDS011;276;48.392;9.950;2023-03-23T01:18:43;3.37;;;3.10;;
579;SDS011;276;48.392;9.950;2023-03-23T01:21:10;4.03;;;3.70;;
579;SDS011;276;48.392;9.950;2023-03-23T01:23:38;4.10;;;3.70;;
579;SDS011;276;48.392;9.950;2023-03-23T01:26:07;4.07;;;3.57;;
579;SDS011;276;48.392;9.950;2023-03-23T01:28:41;3.70;;;3.40;;
579;SDS011;276;48.392;9.950;2023-03-23T01:31:09;6.67;;;3.20;;
579;SDS011;276;48.392;9.950;2023-03-23T01:33:42;3.07;;;2.87;;
579;SDS011;276;48.392;9.950;2023-03-23T01:36:11;3.50;;;3.20;;
579;SDS011;276;48.392;9.950;2023-03-23T01:38:40;2.87;;;2.63;;
579;SDS011;276;48.392;9.950;2023-03-23T01:41:07;3.40;;;3.10;;
579;SDS011;276;48.392;9.950;2023-03-23T01:43:36;3.50;;;3.00;;
579;SDS011;276;48.392;9.950;2023-03-23T01:46:18;4.13;;;3.83;;
579;SDS011;276;48.392;9.950;2023-03-23T01:48:44;4.67;;;4.00;;
579;SDS011;276;48.392;9.950;2023-03-23T01:51:12;4.10;;;3.70;;
579;SDS011;276;48.392;9.950;2023-03-23T01:53:48;4.27;;;3.87;;
579;SDS011;276;48.392;9.950;2023-03-23T01:56:24;4.30;;;3.90;;
579;SDS011;276;48.392;9.950;2023-03-23T01:59:03;4.53;;;4.17;;
579;SDS011;276;48.392;9.950;2023-03-23T02:01:28;5.30;;;4.80;;
579;SDS011;276;48.392;9.950;2023-03-23T02:04:01;6.67;;;4.10;;
579;SDS011;276;48.392;9.950;2023-03-23T02:06:27;4.93;;;4.53;;
579;SDS011;276;48.392;9.950;2023-03-23T02:08:53;5.97;;;4.50;;
579;SDS011;276;48.392;9.950;2023-03-23T02:11:21;4.53;;;4.13;;
579;SDS011;276;48.392;9.950;2023-03-23T02:13:47;5.07;;;4.37;;
579;SDS011;276;48.392;9.950;2023-03-23T02:16:21;6.13;;;5.17;;
579;SDS011;276;48.392;9.950;2023-03-23T02:27:20;5.33;;;4.83;;
579;SDS011;276;48.392;9.950;2023-03-23T02:36:00;5.60;;;5.00;;
579;SDS011;276;48.392;9.950;2023-03-23T02:38:30;5.43;;;4.93;;
579;SDS011;276;48.392;9.950;2023-03-23T02:41:00;7.60;;;5.80;;
579;SDS011;276;48.392;9.950;2023-03-23T02:43:30;6.53;;;6.00;;
579;SDS011;276;48.392;9.950;2023-03-23T02:46:01;5.83;;;5.33;;
579;SDS011;276;48.392;9.950;2023-03-23T02:48:32;6.97;;;6.30;;
579;SDS011;276;48.392;9.950;2023-03-23T02:50:58;5.60;;;4.57;;
579;SDS011;276;48.392;9.950;2023-03-23T02:53:26;5.40;;;4.80;;
579;SDS011;276;48.392;9.950;2023-03-23T02:55:53;6.70;;;5.77;;
579;SDS011;276;48.392;9.950;2023-03-23T02:58:20;6.10;;;5.50;;
579;SDS011;276;48.392;9.950;2023-03-23T03:00:50;5.77;;;5.20;;
579;SDS011;276;48.392;9.950;2023-03-23T03:03:22;4.83;;;4.43;;
579;SDS011;276;48.392;9.950;2023-03-23T03:11:23;5.67;;;5.20;;
579;SDS011;276;48.392;9.950;2023-03-23T03:14:00;4.53;;;4.13;;
579;SDS011;276;48.392;9.950;2023-03-23T03:21:37;4.37;;;4.07;;
579;SDS011;276;48.392;9.950;2023-03-23T03:24:06;5.27;;;4.77;;
579;SDS011;276;48.392;9.950;2023-03-23T03:26:43;5.80;;;5.13;;
579;SDS011;276;48.392;9.950;2023-03-23T03:29:13;4.50;;;4.20;;
579;SDS011;276;48.392;9.950;2023-03-23T03:31:44;6.10;;;4.60;;
579;SDS011;276;48.392;9.950;2023-03-23T03:34:13;4.70;;;4.30;;
579;SDS011;276;48.392;9.950;2023-03-23T03:36:42;5.30;;;4.80;;
579;SDS011;276;48.392;9.950;2023-03-23T03:39:11;5.70;;;5.03;;
579;SDS011;276;48.392;9.950;2023-03-23T03:41:43;4.40;;;4.07;;
579;SDS011;276;48.392;9.950;2023-03-23T03:44:11;6.67;;;4.83;;
579;SDS011;276;48.392;9.950;2023-03-23T03:46:37;5.17;;;4.77;;
579;SDS011;276;48.392;9.950;2023-03-23T03:49:04;4.70;;;4.40;;
579;SDS011;276;48.392;9.950;2023-03-23T03:51:32;5.50;;;5.00;;
579;SDS011;276;48.392;9.950;2023-03-23T03:53:58;6.40;;;5.90;;
579;SDS011;276;48.392;9.950;2023-03-23T03:56:24;6.97;;;4.67;;
579;SDS011;276;48.392;9.950;2023-03-23T03:58:51;4.53;;;4.23;;
579;SDS011;276;48.392;9.950;2023-03-23T04:01:20;7.47;;;5.63;;
579;SDS011;276;48.392;9.950;2023-03-23T04:03:47;6.47;;;5.87;;
579;SDS011;276;48.392;9.950;2023-03-23T04:06:14;4.80;;;4.40;;
579;SDS011;276;48.392;9.950;2023-03-23T04:08:42;5.40;;;4.77;;
579;SDS011;276;48.392;9.950;2023-03-23T04:11:10;5.30;;;4.93;;
579;SDS011;276;48.392;9.950;2023-03-23T04:13:37;5.20;;;4.70;;
579;SDS011;276;48.392;9.950;2023-03-23T04:16:03;4.97;;;4.57;;
579;SDS011;276;48.392;9.950;2023-03-23T04:18:29;5.43;;;4.67;;
579;SDS011;276;48.392;9.950;2023-03-23T04:21:00;5.60;;;5.10;;
579;SDS011;276;48.392;9.950;2023-03-23T04:23:31;6.20;;;5.60;;
579;SDS011;276;48.392;9.950;2023-03-23T04:25:58;4.63;;;4.23;;
579;SDS011;276;48.392;9.950;2023-03-23T04:28:24;7.80;;;5.33;;
579;SDS011;276;48.392;9.950;2023-03-23T04:30:51;5.60;;;5.17;;
579;SDS011;276;48.392;9.950;2023-03-23T04:33:20;5.37;;;4.83;;
579;SDS011;276;48.392;9.950;2023-03-23T04:35:47;5.30;;;4.90;;
579;SDS011;276;48.392;9.950;2023-03-23T04:38:14;5.60;;;5.00;;
579;SDS011;276;48.392;9.950;2023-03-23T04:40:48;6.97;;;5.70;;
579;SDS011;276;48.392;9.950;2023-03-23T04:43:18;5.37;;;4.97;;
579;SDS011;276;48.392;9.950;2023-03-23T04:45:46;5.73;;;5.33;;
579;SDS011;276;48.392;9.950;2023-03-23T04:48:21;6.53;;;5.97;;
579;SDS011;276;48.392;9.950;2023-03-23T04:50:51;5.50;;;5.07;;
579;SDS011;276;48.392;9.950;2023-03-23T04:53:19;6.10;;;5.53;;
579;SDS011;276;48.392;9.950;2023-03-23T04:55:50;6.40;;;5.90;;
579;SDS011;276;48.392;9.950;2023-03-23T04:58:16;6.40;;;5.77;;
579;SDS011;276;48.392;9.950;2023-03-23T05:00:42;6.47;;;5.30;;
579;SDS011;276;48.392;9.950;2023-03-23T05:03:14;5.67;;;5.17;;
579;SDS011;276;48.392;9.950;2023-03-23T05:05:43;6.10;;;5.67;;
579;SDS011;276;48.392;9.950;2023-03-23T05:08:15;5.27;;;4.90;;
579;SDS011;276;48.392;9.950;2023-03-23T05:10:41;5.10;;;4.70;;
579;SDS011;276;48.392;9.950;2023-03-23T05:13:14;6.00;;;5.40;;
579;SDS011;276;48.392;9.950;2023-03-23T05:15:39;6.17;;;5.67;;
579;SDS011;276;48.392;9.950;2023-03-23T05:18:05;5.10;;;4.60;;
579;SDS011;276;48.392;9.950;2023-03-23T05:20:31;5.60;;;5.03;;
579;SDS011;276;48.392;9.950;2023-03-23T05:22:57;6.33;;;5.47;;
579;SDS011;276;48.392;9.950;2023-03-23T05:25:22;6.07;;;4.77;;
579;SDS011;276;48.392;9.950;2023-03-23T05:27:51;5.00;;;4.50;;
579;SDS011;276;48.392;9.950;2023-03-23T05:30:19;4.43;;;4.03;;
579;SDS011;276;48.392;9.950;2023-03-23T05:32:46;4.90;;;4.50;;
579;SDS011;276;48.392;9.950;2023-03-23T05:35:15;4.93;;;4.63;;
579;SDS011;276;48.392;9.950;2023-03-23T05:37:42;5.20;;;4.80;;
579;SDS011;276;48.392;9.950;2023-03-23T05:40:09;4.50;;;4.13;;
579;SDS011;276;48.392;9.950;2023-03-23T05:42:37;4.73;;;4.33;;
579;SDS011;276;48.392;9.950;2023-03-23T05:45:06;5.50;;;5.00;;
579;SDS011;276;48.392;9.950;2023-03-23T05:47:37;5.47;;;4.97;;
579;SDS011;276;48.392;9.950;2023-03-23T05:50:04;5.57;;;4.27;;
579;SDS011;276;48.392;9.950;2023-03-23T05:52:31;4.90;;;4.50;;
579;SDS011;276;48.392;9.950;2023-03-23T05:55:00;4.17;;;3.87;;
579;SDS011;276;48.392;9.950;2023-03-23T05:57:28;4.10;;;3.80;;
579;SDS011;276;48.392;9.950;2023-03-23T05:59:55;4.50;;;4.10;;
579;SDS011;276;48.392;9.950;2023-03-23T06:02:22;4.70;;;4.30;;
579;SDS011;276;48.392;9.950;2023-03-23T06:04:55;5.90;;;4.17;;
579;SDS011;276;48.392;9.950;2023-03-23T06:07:26;4.97;;;4.33;;
579;SDS011;276;48.392;9.950;2023-03-23T06:09:52;4.80;;;4.30;;
579;SDS011;276;48.392;9.950;2023-03-23T06:12:20;4.60;;;4.20;;
579;SDS011;276;48.392;9.950;2023-03-23T06:14:47;4.50;;;4.20;;
579;SDS011;276;48.392;9.950;2023-03-23T06:17:16;5.13;;;4.73;;
579;SDS011;276;48.392;9.950;2023-03-23T06:19:42;4.30;;;3.90;;
579;SDS011;276;48.392;9.950;2023-03-23T06:22:11;4.27;;;3.93;;
579;SDS011;276;48.392;9.950;2023-03-23T06:24:39;5.10;;;4.60;;
579;SDS011;276;48.392;9.950;2023-03-23T06:27:05;4.13;;;3.83;;
579;SDS011;276;48.392;9.950;2023-03-23T06:29:31;4.67;;;4.37;;
579;SDS011;276;48.392;9.950;2023-03-23T06:32:00;3.50;;;3.20;;
579;SDS011;276;48.392;9.950;2023-03-23T06:34:27;4.47;;;3.83;;
579;SDS011;276;48.392;9.950;2023-03-23T06:36:56;4.33;;;3.80;;
579;SDS011;276;48.392;9.950;2023-03-23T06:39:21;5.20;;;3.20;;
579;SDS011;276;48.392;9.950;2023-03-23T06:41:47;7.97;;;3.93;;
579;SDS011;276;48.392;9.950;2023-03-23T06:44:18;3.97;;;3.67;;
579;SDS011;276;48.392;9.950;2023-03-23T06:46:43;5.33;;;4.50;;
579;SDS011;276;48.392;9.950;2023-03-23T06:49:09;4.57;;;4.20;;
579;SDS011;276;48.392;9.950;2023-03-23T06:51:36;3.50;;;3.20;;
579;SDS011;276;48.392;9.950;2023-03-23T06:54:02;4.23;;;3.80;;
579;SDS011;276;48.392;9.950;2023-03-23T06:56:28;3.80;;;3.50;;
579;SDS011;276;48.392;9.950;2023-03-23T06:58:55;3.70;;;3.40;;
579;SDS011;276;48.392;9.950;2023-03-23T07:01:20;4.67;;;4.27;;
579;SDS011;276;48.392;9.950;2023-03-23T07:03:47;5.10;;;3.63;;
579;SDS011;276;48.392;9.950;2023-03-23T07:06:13;4.60;;;4.20;;
579;SDS011;276;48.392;9.950;2023-03-23T07:08:40;4.80;;;3.57;;
579;SDS011;276;48.392;9.950;2023-03-23T07:11:05;4.33;;;4.03;;
579;SDS011;276;48.392;9.950;2023-03-23T07:13:31;5.77;;;4.27;;
579;SDS011;276;48.392;9.950;2023-03-23T07:15:59;7.23;;;6.47;;
579;SDS011;276;48.392;9.950;2023-03-23T07:18:25;4.50;;;4.03;;
579;SDS011;276;48.392;9.950;2023-03-23T07:20:54;5.00;;;4.20;;
579;SDS011;276;48.392;9.950;2023-03-23T07:23:20;5.03;;;4.00;;
579;SDS011;276;48.392;9.950;2023-03-23T07:25:48;3.93;;;3.63;;
579;SDS011;276;48.392;9.950;2023-03-23T07:28:13;4.20;;;3.87;;
579;SDS011;276;48.392;9.950;2023-03-23T07:30:40;5.73;;;4.20;;
579;SDS011;276;48.392;9.950;2023-03-23T07:33:08;4.30;;;3.57;;
579;SDS011;276;48.392;9.950;2023-03-23T07:35:34;4.20;;;3.80;;
579;SDS011;276;48.392;9.950;2023-03-23T07:38:00;10.83;;;9.23;;
579;SDS011;276;48.392;9.950;2023-03-23T07:40:27;4.97;;;4.47;;
579;SDS011;276;48.392;9.950;2023-03-23T07:42:54;4.27;;;3.77;;
579;SDS011;276;48.392;9.950;2023-03-23T07:45:21;4.60;;;3.90;;
579;SDS011;276;48.392;9.950;2023-03-23T07:47:47;4.70;;;4.30;;
579;SDS011;276;48.392;9.950;2023-03-23T07:50:13;5.80;;;5.30;;
579;SDS011;276;48.392;9.950;2023-03-23T07:52:42;6.20;;;4.07;;
579;SDS011;276;48.392;9.950;2023-03-23T07:55:09;4.17;;;3.73;;
579;SDS011;276;48.392;9.950;2023-03-23T07:57:42;4.43;;;4.03;;
579;SDS011;276;48.392;9.950;2023-03-23T08:00:08;5.37;;;3.90;;
579;SDS011;276;48.392;9.950;2023-03-23T08:02:42;6.47;;;4.47;;
579;SDS011;276;48.392;9.950;2023-03-23T08:05:13;6.63;;;6.03;;
579;SDS011;276;48.392;9.950;2023-03-23T08:07:39;4.37;;;3.90;;
579;SDS011;276;48.392;9.950;2023-03-23T08:10:05;5.10;;;4.60;;
579;SDS011;276;48.392;9.950;2023-03-23T08:12:35;9.57;;;7.20;;
579;SDS011;276;48.392;9.950;2023-03-23T08:15:04;4.93;;;4.13;;
579;SDS011;276;48.392;9.950;2023-03-23T08:17:33;5.20;;;3.97;;
579;SDS011;276;48.392;9.950;2023-03-23T08:19:59;4.23;;;3.43;;
579;SDS011;276;48.392;9.950;2023-03-23T08:22:33;4.50;;;4.10;;
579;SDS011;276;48.392;9.950;2023-03-23T08:25:00;4.83;;;3.40;;
579;SDS011;276;48.392;9.950;2023-03-23T08:27:29;6.00;;;4.10;;
579;SDS011;276;48.392;9.950;2023-03-23T08:29:55;4.67;;;3.60;;
579;SDS011;276;48.392;9.950;2023-03-23T08:32:23;3.77;;;3.57;;
579;SDS011;276;48.392;9.950;2023-03-23T08:34:49;5.73;;;5.03;;
579;SDS011;276;48.392;9.950;2023-03-23T08:37:15;4.63;;;4.23;;
579;SDS011;276;48.392;9.950;2023-03-23T08:39:44;3.60;;;3.30;;
579;SDS011;276;48.392;9.950;2023-03-23T08:42:09;4.10;;;3.80;;
579;SDS011;276;48.392;9.950;2023-03-23T08:44:38;4.90;;;4.03;;
579;SDS011;276;48.392;9.950;2023-03-23T08:47:06;4.37;;;4.00;;
579;SDS011;276;48.392;9.950;2023-03-23T08:49:32;4.73;;;4.30;;
579;SDS011;276;48.392;9.950;2023-03-23T08:52:00;5.53;;;4.90;;
579;SDS011;276;48.392;9.950;2023-03-23T08:54:27;5.23;;;4.83;;
579;SDS011;276;48.392;9.950;2023-03-23T08:56:55;6.03;;;5.50;;
579;SDS011;276;48.392;9.950;2023-03-23T08:59:20;7.47;;;4.33;;
579;SDS011;276;48.392;9.950;2023-03-23T09:01:48;5.00;;;4.60;;
579;SDS011;276;48.392;9.950;2023-03-23T09:04:14;6.20;;;5.60;;
579;SDS011;276;48.392;9.950;2023-03-23T09:06:40;6.70;;;6.00;;
579;SDS011;276;48.392;9.950;2023-03-23T09:09:06;6.40;;;5.03;;
579;SDS011;276;48.392;9.950;2023-03-23T09:11:32;8.13;;;3.93;;
579;SDS011;276;48.392;9.950;2023-03-23T09:13:59;4.77;;;4.43;;
579;SDS011;276;48.392;9.950;2023-03-23T09:16:29;7.60;;;4.40;;
579;SDS011;276;48.392;9.950;2023-03-23T09:18:56;4.23;;;3.93;;
579;SDS011;276;48.392;9.950;2023-03-23T09:21:24;3.70;;;3.40;;
579;SDS011;276;48.392;9.950;2023-03-23T09:23:50;7.53;;;3.67;;
579;SDS011;276;48.392;9.950;2023-03-23T09:26:16;3.97;;;3.67;;
579;SDS011;276;48.392;9.950;2023-03-23T09:28:42;5.73;;;4.23;;
579;SDS011;276;48.392;9.950;2023-03-23T09:31:09;5.07;;;4.03;;
579;SDS011;276;48.392;9.950;2023-03-23T09:33:36;5.40;;;3.80;;
579;SDS011;276;48.392;9.950;2023-03-23T09:36:07;5.53;;;3.93;;
579;SDS011;276;48.392;9.950;2023-03-23T09:38:37;4.33;;;3.93;;
579;SDS011;276;48.392;9.950;2023-03-23T09:43:53;4.90;;;4.37;;
579;SDS011;276;48.392;9.950;2023-03-23T09:46:50;5.77;;;4.70;;
579;SDS011;276;48.392;9.950;2023-03-23T09:49:51;6.27;;;5.63;;
579;SDS011;276;48.392;9.950;2023-03-23T09:52:22;5.60;;;5.20;;
579;SDS011;276;48.392;9.950;2023-03-23T09:54:57;4.10;;;3.80;;
579;SDS011;276;48.392;9.950;2023-03-23T09:57:41;4.50;;;4.10;;
579;SDS011;276;48.392;9.950;2023-03-23T10:00:15;3.77;;;3.47;;
579;SDS011;276;48.392;9.950;2023-03-23T10:03:10;4.70;;;4.30;;
579;SDS011;276;48.392;9.950;2023-03-23T10:05:45;5.73;;;5.13;;
579;SDS011;276;48.392;9.950;2023-03-23T10:08:19;5.37;;;4.87;;
579;SDS011;276;48.392;9.950;2023-03-23T10:11:04;6.20;;;5.67;;
579;SDS011;276;48.392;9.950;2023-03-23T10:16:31;5.60;;;4.00;;
579;SDS011;276;48.392;9.950;2023-03-23T10:19:11;6.07;;;3.27;;
579;SDS011;276;48.392;9.950;2023-03-23T10:21:58;4.90;;;3.80;;
579;SDS011;276;48.392;9.950;2023-03-23T10:24:35;5.07;;;3.67;;
579;SDS011;276;48.392;9.950;2023-03-23T10:27:16;4.00;;;3.70;;
579;SDS011;276;48.392;9.950;2023-03-23T10:30:38;4.00;;;3.70;;
579;SDS011;276;48.392;9.950;2023-03-23T10:33:04;3.63;;;3.27;;
579;SDS011;276;48.392;9.950;2023-03-23T10:35:43;4.17;;;3.87;;
579;SDS011;276;48.392;9.950;2023-03-23T10:38:14;4.30;;;3.80;;
579;SDS011;276;48.392;9.950;2023-03-23T10:40:49;5.10;;;4.07;;
579;SDS011;276;48.392;9.950;2023-03-23T10:43:24;5.47;;;3.73;;
579;SDS011;276;48.392;9.950;2023-03-23T10:46:01;3.80;;;3.50;;
579;SDS011;276;48.392;9.950;2023-03-23T10:48:37;6.10;;;5.37;;
579;SDS011;276;48.392;9.950;2023-03-23T10:51:04;5.37;;;3.77;;
579;SDS011;276;48.392;9.950;2023-03-23T10:53:43;3.47;;;3.17;;
579;SDS011;276;48.392;9.950;2023-03-23T10:56:22;3.90;;;3.60;;
579;SDS011;276;48.392;9.950;2023-03-23T10:58:53;3.43;;;3.10;;
579;SDS011;276;48.392;9.950;2023-03-23T11:01:20;3.97;;;3.60;;
579;SDS011;276;48.392;9.950;2023-03-23T11:03:57;3.50;;;3.30;;
579;SDS011;276;48.392;9.950;2023-03-23T11:06:32;3.50;;;3.20;;
579;SDS011;276;48.392;9.950;2023-03-23T11:09:12;3.43;;;3.23;;
579;SDS011;276;48.392;9.950;2023-03-23T11:11:41;4.23;;;3.43;;
579;SDS011;276;48.392;9.950;2023-03-23T11:14:28;3.20;;;2.80;;
579;SDS011;276;48.392;9.950;2023-03-23T11:16:58;3.43;;;3.13;;
579;SDS011;276;48.392;9.950;2023-03-23T11:19:28;6.00;;;5.40;;
579;SDS011;276;48.392;9.950;2023-03-23T11:24:36;4.17;;;3.57;;
579;SDS011;276;48.392;9.950;2023-03-23T11:27:06;5.63;;;2.57;;
579;SDS011;276;48.392;9.950;2023-03-23T11:29:35;3.33;;;2.83;;
579;SDS011;276;48.392;9.950;2023-03-23T11:32:09;4.63;;;3.00;;
579;SDS011;276;48.392;9.950;2023-03-23T11:34:46;2.60;;;2.40;;
579;SDS011;276;48.392;9.950;2023-03-23T11:37:29;3.10;;;2.70;;
579;SDS011;276;48.392;9.950;2023-03-23T11:42:37;2.63;;;2.37;;
579;SDS011;276;48.392;9.950;2023-03-23T11:53:24;1.53;;;1.43;;
579;SDS011;276;48.392;9.950;2023-03-23T11:56:25;1.70;;;1.60;;
579;SDS011;276;48.392;9.950;2023-03-23T11:58:56;1.60;;;1.30;;
579;SDS011;276;48.392;9.950;2023-03-23T12:01:41;1.83;;;1.67;;
579;SDS011;276;48.392;9.950;2023-03-23T12:09:31;1.70;;;1.60;;
579;SDS011;276;48.392;9.950;2023-03-23T12:22:59;1.60;;;1.47;;
579;SDS011;276;48.392;9.950;2023-03-23T12:25:38;2.43;;;2.23;;
579;SDS011;276;48.392;9.950;2023-03-23T12:45:02;3.07;;;2.43;;
579;SDS011;276;48.392;9.950;2023-03-23T12:47:49;1.97;;;1.87;;
579;SDS011;276;48.392;9.950;2023-03-23T12:53:21;1.83;;;1.63;;
579;SDS011;276;48.392;9.950;2023-03-23T12:56:02;2.63;;;2.40;;
579;SDS011;276;48.392;9.950;2023-03-23T12:58:47;1.70;;;1.60;;
579;SDS011;276;48.392;9.950;2023-03-23T13:01:22;2.20;;;2.00;;
579;SDS011;276;48.392;9.950;2023-03-23T13:03:58;2.63;;;2.10;;
579;SDS011;276;48.392;9.950;2023-03-23T13:06:49;1.70;;;1.60;;
579;SDS011;276;48.392;9.950;2023-03-23T13:11:55;2.60;;;2.07;;
579;SDS011;276;48.392;9.950;2023-03-23T13:22:52;2.90;;;2.70;;
579;SDS011;276;48.392;9.950;2023-03-23T13:27:59;4.87;;;2.60;;
579;SDS011;276;48.392;9.950;2023-03-23T13:30:26;2.83;;;2.63;;
579;SDS011;276;48.392;9.950;2023-03-23T13:33:04;2.60;;;2.40;;
579;SDS011;276;48.392;9.950;2023-03-23T13:35:40;3.43;;;3.07;;
579;SDS011;276;48.392;9.950;2023-03-23T13:38:11;3.60;;;2.60;;
579;SDS011;276;48.392;9.950;2023-03-23T13:40:49;3.57;;;3.27;;
579;SDS011;276;48.392;9.950;2023-03-23T13:43:28;3.37;;;3.07;;
579;SDS011;276;48.392;9.950;2023-03-23T13:46:09;3.30;;;3.10;;
579;SDS011;276;48.392;9.950;2023-03-23T13:48:41;3.70;;;3.10;;
579;SDS011;276;48.392;9.950;2023-03-23T13:54:05;4.93;;;3.07;;
579;SDS011;276;48.392;9.950;2023-03-23T13:56:41;4.63;;;3.40;;
579;SDS011;276;48.392;9.950;2023-03-23T14:10:36;2.90;;;2.60;;
579;SDS011;276;48.392;9.950;2023-03-23T14:16:22;3.70;;;3.10;;
579;SDS011;276;48.392;9.950;2023-03-23T14:18:53;3.17;;;2.87;;
579;SDS011;276;48.392;9.950;2023-03-23T14:24:11;3.40;;;3.10;;
579;SDS011;276;48.392;9.950;2023-03-23T14:26:40;3.67;;;3.30;;
579;SDS011;276;48.392;9.950;2023-03-23T14:29:11;3.57;;;3.27;;
579;SDS011;276;48.392;9.950;2023-03-23T14:31:38;3.90;;;3.07;;
579;SDS011;276;48.392;9.950;2023-03-23T14:34:11;4.20;;;3.43;;
579;SDS011;276;48.392;9.950;2023-03-23T14:36:43;4.13;;;3.33;;
579;SDS011;276;48.392;9.950;2023-03-23T14:39:15;3.13;;;2.83;;
579;SDS011;276;48.392;9.950;2023-03-23T14:41:45;2.67;;;2.47;;
579;SDS011;276;48.392;9.950;2023-03-23T14:44:27;3.50;;;3.20;;
579;SDS011;276;48.392;9.950;2023-03-23T14:46:55;3.17;;;2.87;;
579;SDS011;276;48.392;9.950;2023-03-23T14:49:37;3.03;;;2.70;;
579;SDS011;276;48.392;9.950;2023-03-23T14:52:12;3.23;;;2.97;;
579;SDS011;276;48.392;9.950;2023-03-23T14:54:40;3.17;;;2.90;;
579;SDS011;276;48.392;9.950;2023-03-23T14:59:53;3.40;;;3.10;;
579;SDS011;276;48.392;9.950;2023-03-23T15:04:54;3.63;;;3.37;;
579;SDS011;276;48.392;9.950;2023-03-23T15:07:29;3.87;;;3.50;;
579;SDS011;276;48.392;9.950;2023-03-23T15:09:58;3.50;;;3.20;;
579;SDS011;276;48.392;9.950;2023-03-23T15:12:27;6.13;;;3.20;;
579;SDS011;276;48.392;9.950;2023-03-23T15:14:57;4.60;;;3.20;;
579;SDS011;276;48.392;9.950;2023-03-23T15:17:27;4.50;;;2.97;;
579;SDS011;276;48.392;9.950;2023-03-23T15:20:07;3.07;;;2.77;;
579;SDS011;276;48.392;9.950;2023-03-23T15:22:47;4.30;;;2.87;;
579;SDS011;276;48.392;9.950;2023-03-23T15:25:22;3.30;;;3.00;;
579;SDS011;276;48.392;9.950;2023-03-23T15:27:56;3.03;;;2.83;;
579;SDS011;276;48.392;9.950;2023-03-23T15:30:47;5.40;;;3.30;;
579;SDS011;276;48.392;9.950;2023-03-23T15:33:17;3.57;;;2.93;;
579;SDS011;276;48.392;9.950;2023-03-23T15:35:51;3.00;;;2.80;;
579;SDS011;276;48.392;9.950;2023-03-23T15:38:25;4.83;;;2.77;;
579;SDS011;276;48.392;9.950;2023-03-23T15:40:55;4.17;;;2.53;;
579;SDS011;276;48.392;9.950;2023-03-23T15:43:35;3.00;;;2.80;;
579;SDS011;276;48.392;9.950;2023-03-23T15:49:04;3.83;;;3.53;;
579;SDS011;276;48.392;9.950;2023-03-23T15:51:35;3.43;;;3.13;;
579;SDS011;276;48.392;9.950;2023-03-23T15:54:07;3.30;;;3.10;;
579;SDS011;276;48.392;9.950;2023-03-23T15:56:43;3.13;;;2.83;;
579;SDS011;276;48.392;9.950;2023-03-23T15:59:09;3.03;;;2.83;;
579;SDS011;276;48.392;9.950;2023-03-23T16:01:36;2.67;;;2.47;;
579;SDS011;276;48.392;9.950;2023-03-23T16:04:16;3.57;;;3.27;;
579;SDS011;276;48.392;9.950;2023-03-23T16:06:46;3.30;;;2.83;;
579;SDS011;276;48.392;9.950;2023-03-23T16:09:16;3.07;;;2.87;;
579;SDS011;276;48.392;9.950;2023-03-23T16:11:47;4.30;;;3.90;;
579;SDS011;276;48.392;9.950;2023-03-23T16:14:15;3.73;;;3.43;;
579;SDS011;276;48.392;9.950;2023-03-23T16:16:42;3.47;;;3.17;;
579;SDS011;276;48.392;9.950;2023-03-23T16:19:17;3.70;;;3.03;;
579;SDS011;276;48.392;9.950;2023-03-23T16:21:48;3.17;;;2.93;;
579;SDS011;276;48.392;9.950;2023-03-23T16:24:14;2.70;;;2.50;;
579;SDS011;276;48.392;9.950;2023-03-23T16:26:41;3.50;;;3.20;;
579;SDS011;276;48.392;9.950;2023-03-23T16:29:11;2.97;;;2.77;;
579;SDS011;276;48.392;9.950;2023-03-23T16:31:43;2.23;;;2.13;;
579;SDS011;276;48.392;9.950;2023-03-23T16:34:08;4.00;;;3.60;;
579;SDS011;276;48.392;9.950;2023-03-23T16:36:36;3.87;;;3.57;;
579;SDS011;276;48.392;9.950;2023-03-23T16:39:02;3.90;;;3.60;;
579;SDS011;276;48.392;9.950;2023-03-23T16:41:30;3.97;;;3.67;;
579;SDS011;276;48.392;9.950;2023-03-23T16:43:58;3.37;;;3.07;;
579;SDS011;276;48.392;9.950;2023-03-23T16:46:29;3.60;;;3.30;;
579;SDS011;276;48.392;9.950;2023-03-23T16:48:54;5.40;;;3.60;;
579;SDS011;276;48.392;9.950;2023-03-23T16:51:22;3.37;;;3.10;;
579;SDS011;276;48.392;9.950;2023-03-23T16:53:48;3.77;;;3.13;;
579;SDS011;276;48.392;9.950;2023-03-23T16:56:13;3.40;;;3.10;;
579;SDS011;276;48.392;9.950;2023-03-23T16:58:39;5.30;;;3.30;;
579;SDS011;276;48.392;9.950;2023-03-23T17:01:06;3.73;;;3.37;;
579;SDS011;276;48.392;9.950;2023-03-23T17:03:31;4.47;;;4.00;;
579;SDS011;276;48.392;9.950;2023-03-23T17:05:58;4.20;;;3.90;;
579;SDS011;276;48.392;9.950;2023-03-23T17:08:25;4.63;;;4.23;;
579;SDS011;276;48.392;9.950;2023-03-23T17:10:52;3.60;;;3.40;;
579;SDS011;276;48.392;9.950;2023-03-23T17:13:17;3.73;;;3.43;;
579;SDS011;276;48.392;9.950;2023-03-23T17:15:44;4.57;;;3.57;;
579;SDS011;276;48.392;9.950;2023-03-23T17:18:10;4.90;;;4.03;;
579;SDS011;276;48.392;9.950;2023-03-23T17:20:36;4.80;;;3.90;;
579;SDS011;276;48.392;9.950;2023-03-23T17:23:04;3.67;;;3.33;;
579;SDS011;276;48.392;9.950;2023-03-23T17:25:32;3.90;;;3.60;;
579;SDS011;276;48.392;9.950;2023-03-23T17:28:01;3.93;;;3.67;;
579;SDS011;276;48.392;9.950;2023-03-23T17:30:31;5.00;;;3.50;;
579;SDS011;276;48.392;9.950;2023-03-23T17:32:57;5.40;;;4.17;;
579;SDS011;276;48.392;9.950;2023-03-23T17:35:25;5.67;;;3.93;;
579;SDS011;276;48.392;9.950;2023-03-23T17:37:53;4.70;;;4.00;;
579;SDS011;276;48.392;9.950;2023-03-23T17:40:21;4.60;;;4.20;;
579;SDS011;276;48.392;9.950;2023-03-23T17:42:47;5.07;;;4.67;;
579;SDS011;276;48.392;9.950;2023-03-23T17:45:14;3.53;;;3.23;;
579;SDS011;276;48.392;9.950;2023-03-23T17:47:40;5.07;;;4.63;;
579;SDS011;276;48.392;9.950;2023-03-23T17:50:06;5.80;;;5.40;;
579;SDS011;276;48.392;9.950;2023-03-23T17:52:35;4.60;;;4.17;;
579;SDS011;276;48.392;9.950;2023-03-23T17:55:00;4.53;;;4.10;;
579;SDS011;276;48.392;9.950;2023-03-23T17:57:26;4.00;;;3.70;;
579;SDS011;276;48.392;9.950;2023-03-23T17:59:54;6.40;;;4.10;;
579;SDS011;276;48.392;9.950;2023-03-23T18:02:22;4.70;;;4.27;;
579;SDS011;276;48.392;9.950;2023-03-23T18:04:48;4.10;;;3.80;;
579;SDS011;276;48.392;9.950;2023-03-23T18:07:16;4.47;;;3.83;;